sensor_id;sensor_type;location;lat;lon;timestamp;P1;durP1;ratioP1;P2;durP2;ratioP2
59038;SDS011;44824;43.376;19.630;2023-06-14T00:00:07;14.67;;;5.60;;
59038;SDS011;44824;43.376;19.630;2023-06-14T00:05:00;9.82;;;5.95;;
59038;SDS011;44824;43.376;19.630;2023-06-14T00:07:39;9.20;;;5.37;;
59038;SDS011;44824;43.376;19.630;2023-06-14T00:10:08;11.02;;;5.78;;
59038;SDS011;44824;43.376;19.630;2023-06-14T00:12:35;12.15;;;6.00;;
59038;SDS011;44824;43.376;19.630;2023-06-14T00:17:52;10.77;;;6.28;;
59038;SDS011;44824;43.376;19.630;2023-06-14T00:20:21;10.00;;;6.32;;
59038;SDS011;44824;43.376;19.630;2023-06-14T00:22:47;9.25;;;5.63;;
59038;SDS011;44824;43.376;19.630;2023-06-14T00:25:13;12.45;;;6.25;;
59038;SDS011;44824;43.376;19.630;2023-06-14T00:27:39;10.55;;;6.03;;
59038;SDS011;44824;43.376;19.630;2023-06-14T00:30:06;12.97;;;6.33;;
59038;SDS011;44824;43.376;19.630;2023-06-14T00:32:32;11.85;;;6.30;;
59038;SDS011;44824;43.376;19.630;2023-06-14T00:34:58;11.33;;;6.70;;
59038;SDS011;44824;43.376;19.630;2023-06-14T00:37:24;12.18;;;7.43;;
59038;SDS011;44824;43.376;19.630;2023-06-14T00:39:50;12.03;;;6.57;;
59038;SDS011;44824;43.376;19.630;2023-06-14T00:42:26;11.23;;;6.80;;
59038;SDS011;44824;43.376;19.630;2023-06-14T00:47:56;9.18;;;6.40;;
59038;SDS011;44824;43.376;19.630;2023-06-14T00:50:22;10.13;;;6.80;;
59038;SDS011;44824;43.376;19.630;2023-06-14T00:52:48;11.55;;;7.40;;
59038;SDS011;44824;43.376;19.630;2023-06-14T00:55:14;10.38;;;6.35;;
59038;SDS011;44824;43.376;19.630;2023-06-14T00:57:40;12.25;;;6.78;;
59038;SDS011;44824;43.376;19.630;2023-06-14T01:00:16;8.82;;;5.82;;
59038;SDS011;44824;43.376;19.630;2023-06-14T01:02:42;10.25;;;6.25;;
59038;SDS011;44824;43.376;19.630;2023-06-14T01:05:09;12.27;;;6.10;;
59038;SDS011;44824;43.376;19.630;2023-06-14T01:18:16;9.85;;;5.63;;
59038;SDS011;44824;43.376;19.630;2023-06-14T01:20:44;10.50;;;6.15;;
59038;SDS011;44824;43.376;19.630;2023-06-14T01:25:38;9.40;;;5.88;;
59038;SDS011;44824;43.376;19.630;2023-06-14T01:28:06;11.95;;;6.43;;
59038;SDS011;44824;43.376;19.630;2023-06-14T01:33:38;10.13;;;6.07;;
59038;SDS011;44824;43.376;19.630;2023-06-14T01:36:05;9.00;;;6.03;;
59038;SDS011;44824;43.376;19.630;2023-06-14T01:38:32;12.57;;;6.57;;
59038;SDS011;44824;43.376;19.630;2023-06-14T01:40:59;9.70;;;6.37;;
59038;SDS011;44824;43.376;19.630;2023-06-14T01:43:26;24.35;;;6.03;;
59038;SDS011;44824;43.376;19.630;2023-06-14T01:48:58;11.25;;;6.18;;
59038;SDS011;44824;43.376;19.630;2023-06-14T01:53:50;10.77;;;6.10;;
59038;SDS011;44824;43.376;19.630;2023-06-14T01:56:17;8.95;;;6.38;;
59038;SDS011;44824;43.376;19.630;2023-06-14T01:58:43;9.50;;;5.80;;
59038;SDS011;44824;43.376;19.630;2023-06-14T02:01:09;12.65;;;6.47;;
59038;SDS011;44824;43.376;19.630;2023-06-14T02:03:37;9.30;;;6.20;;
59038;SDS011;44824;43.376;19.630;2023-06-14T02:06:04;10.13;;;6.80;;
59038;SDS011;44824;43.376;19.630;2023-06-14T02:08:30;9.45;;;5.90;;
59038;SDS011;44824;43.376;19.630;2023-06-14T02:10:56;10.47;;;6.57;;
59038;SDS011;44824;43.376;19.630;2023-06-14T02:13:22;9.73;;;5.90;;
59038;SDS011;44824;43.376;19.630;2023-06-14T02:16:03;10.10;;;6.40;;
59038;SDS011;44824;43.376;19.630;2023-06-14T02:18:30;12.68;;;6.53;;
59038;SDS011;44824;43.376;19.630;2023-06-14T02:20:57;10.93;;;6.25;;
59038;SDS011;44824;43.376;19.630;2023-06-14T02:23:23;9.27;;;6.20;;
59038;SDS011;44824;43.376;19.630;2023-06-14T02:25:49;11.33;;;6.33;;
59038;SDS011;44824;43.376;19.630;2023-06-14T02:28:15;10.13;;;6.30;;
59038;SDS011;44824;43.376;19.630;2023-06-14T02:33:45;11.73;;;5.90;;
59038;SDS011;44824;43.376;19.630;2023-06-14T02:36:14;10.33;;;6.13;;
59038;SDS011;44824;43.376;19.630;2023-06-14T02:38:40;10.15;;;5.97;;
59038;SDS011;44824;43.376;19.630;2023-06-14T02:41:06;11.23;;;5.93;;
59038;SDS011;44824;43.376;19.630;2023-06-14T02:43:32;8.98;;;6.15;;
59038;SDS011;44824;43.376;19.630;2023-06-14T02:49:13;10.30;;;6.50;;
59038;SDS011;44824;43.376;19.630;2023-06-14T02:51:42;9.05;;;6.05;;
59038;SDS011;44824;43.376;19.630;2023-06-14T02:54:08;10.27;;;6.10;;
59038;SDS011;44824;43.376;19.630;2023-06-14T02:56:57;10.80;;;5.80;;
59038;SDS011;44824;43.376;19.630;2023-06-14T03:02:26;11.57;;;6.82;;
59038;SDS011;44824;43.376;19.630;2023-06-14T03:04:52;10.60;;;6.07;;
59038;SDS011;44824;43.376;19.630;2023-06-14T03:07:19;9.48;;;5.50;;
59038;SDS011;44824;43.376;19.630;2023-06-14T03:09:45;13.37;;;6.00;;
59038;SDS011;44824;43.376;19.630;2023-06-14T03:12:12;14.25;;;5.70;;
59038;SDS011;44824;43.376;19.630;2023-06-14T03:14:38;9.73;;;6.22;;
59038;SDS011;44824;43.376;19.630;2023-06-14T03:17:04;12.25;;;5.75;;
59038;SDS011;44824;43.376;19.630;2023-06-14T03:19:30;9.10;;;5.82;;
59038;SDS011;44824;43.376;19.630;2023-06-14T03:21:57;8.60;;;5.23;;
59038;SDS011;44824;43.376;19.630;2023-06-14T03:24:26;11.33;;;5.70;;
59038;SDS011;44824;43.376;19.630;2023-06-14T03:26:57;9.57;;;5.90;;
59038;SDS011;44824;43.376;19.630;2023-06-14T03:29:28;9.33;;;5.93;;
59038;SDS011;44824;43.376;19.630;2023-06-14T03:31:57;10.93;;;5.65;;
59038;SDS011;44824;43.376;19.630;2023-06-14T03:34:43;9.48;;;5.75;;
59038;SDS011;44824;43.376;19.630;2023-06-14T03:37:10;9.35;;;5.72;;
59038;SDS011;44824;43.376;19.630;2023-06-14T03:39:45;10.55;;;5.90;;
59038;SDS011;44824;43.376;19.630;2023-06-14T03:42:13;10.00;;;5.97;;
59038;SDS011;44824;43.376;19.630;2023-06-14T03:50:09;10.93;;;5.90;;
59038;SDS011;44824;43.376;19.630;2023-06-14T03:52:36;8.32;;;5.72;;
59038;SDS011;44824;43.376;19.630;2023-06-14T03:55:02;8.67;;;5.43;;
59038;SDS011;44824;43.376;19.630;2023-06-14T03:57:29;9.20;;;5.70;;
59038;SDS011;44824;43.376;19.630;2023-06-14T03:59:55;10.23;;;5.72;;
59038;SDS011;44824;43.376;19.630;2023-06-14T04:02:22;27.52;;;7.00;;
59038;SDS011;44824;43.376;19.630;2023-06-14T04:04:48;12.90;;;5.83;;
59038;SDS011;44824;43.376;19.630;2023-06-14T04:07:15;14.07;;;5.88;;
59038;SDS011;44824;43.376;19.630;2023-06-14T04:09:44;10.15;;;6.05;;
59038;SDS011;44824;43.376;19.630;2023-06-14T04:12:10;11.38;;;6.00;;
59038;SDS011;44824;43.376;19.630;2023-06-14T04:14:37;10.38;;;5.80;;
59038;SDS011;44824;43.376;19.630;2023-06-14T04:20:00;11.82;;;6.10;;
59038;SDS011;44824;43.376;19.630;2023-06-14T04:22:32;11.38;;;6.50;;
59038;SDS011;44824;43.376;19.630;2023-06-14T04:24:58;11.55;;;6.50;;
59038;SDS011;44824;43.376;19.630;2023-06-14T04:27:25;14.23;;;6.90;;
59038;SDS011;44824;43.376;19.630;2023-06-14T04:29:52;13.43;;;6.43;;
59038;SDS011;44824;43.376;19.630;2023-06-14T04:32:32;16.10;;;6.47;;
59038;SDS011;44824;43.376;19.630;2023-06-14T04:35:06;13.82;;;6.65;;
59038;SDS011;44824;43.376;19.630;2023-06-14T04:37:35;11.10;;;6.22;;
59038;SDS011;44824;43.376;19.630;2023-06-14T04:40:08;12.57;;;6.47;;
59038;SDS011;44824;43.376;19.630;2023-06-14T04:42:39;12.20;;;6.28;;
59038;SDS011;44824;43.376;19.630;2023-06-14T04:48:12;10.70;;;6.25;;
59038;SDS011;44824;43.376;19.630;2023-06-14T04:50:38;9.87;;;6.40;;
59038;SDS011;44824;43.376;19.630;2023-06-14T04:53:06;8.82;;;6.13;;
59038;SDS011;44824;43.376;19.630;2023-06-14T04:55:32;9.23;;;6.27;;
59038;SDS011;44824;43.376;19.630;2023-06-14T04:57:58;9.73;;;6.65;;
59038;SDS011;44824;43.376;19.630;2023-06-14T05:00:24;10.63;;;6.50;;
59038;SDS011;44824;43.376;19.630;2023-06-14T05:02:51;11.55;;;6.05;;
59038;SDS011;44824;43.376;19.630;2023-06-14T05:07:46;11.43;;;6.00;;
59038;SDS011;44824;43.376;19.630;2023-06-14T05:10:12;10.70;;;6.30;;
59038;SDS011;44824;43.376;19.630;2023-06-14T05:12:41;10.03;;;6.03;;
59038;SDS011;44824;43.376;19.630;2023-06-14T05:15:08;10.98;;;6.40;;
59038;SDS011;44824;43.376;19.630;2023-06-14T05:20:33;14.68;;;6.15;;
59038;SDS011;44824;43.376;19.630;2023-06-14T05:23:02;11.18;;;6.25;;
59038;SDS011;44824;43.376;19.630;2023-06-14T05:25:31;12.10;;;6.40;;
59038;SDS011;44824;43.376;19.630;2023-06-14T05:34:26;10.48;;;6.43;;
59038;SDS011;44824;43.376;19.630;2023-06-14T05:51:15;10.43;;;6.00;;
59038;SDS011;44824;43.376;19.630;2023-06-14T05:56:24;10.90;;;6.47;;
59038;SDS011;44824;43.376;19.630;2023-06-14T05:58:58;13.63;;;6.38;;
59038;SDS011;44824;43.376;19.630;2023-06-14T06:01:24;10.82;;;6.13;;
59038;SDS011;44824;43.376;19.630;2023-06-14T06:03:51;9.48;;;6.70;;
59038;SDS011;44824;43.376;19.630;2023-06-14T06:06:17;9.10;;;6.05;;
59038;SDS011;44824;43.376;19.630;2023-06-14T06:08:44;9.15;;;6.05;;
59038;SDS011;44824;43.376;19.630;2023-06-14T06:11:10;12.27;;;6.75;;
59038;SDS011;44824;43.376;19.630;2023-06-14T06:13:36;9.25;;;5.97;;
59038;SDS011;44824;43.376;19.630;2023-06-14T06:16:04;10.20;;;6.10;;
59038;SDS011;44824;43.376;19.630;2023-06-14T06:18:30;10.07;;;6.72;;
59038;SDS011;44824;43.376;19.630;2023-06-14T06:20:56;11.85;;;6.20;;
59038;SDS011;44824;43.376;19.630;2023-06-14T06:23:25;10.35;;;5.90;;
59038;SDS011;44824;43.376;19.630;2023-06-14T06:28:39;15.50;;;5.38;;
59038;SDS011;44824;43.376;19.630;2023-06-14T06:31:05;9.20;;;5.78;;
59038;SDS011;44824;43.376;19.630;2023-06-14T06:33:31;9.02;;;5.43;;
59038;SDS011;44824;43.376;19.630;2023-06-14T06:35:58;8.82;;;6.28;;
59038;SDS011;44824;43.376;19.630;2023-06-14T06:38:24;8.57;;;4.97;;
59038;SDS011;44824;43.376;19.630;2023-06-14T06:40:50;10.30;;;5.20;;
59038;SDS011;44824;43.376;19.630;2023-06-14T06:43:16;9.00;;;5.82;;
59038;SDS011;44824;43.376;19.630;2023-06-14T06:45:43;9.73;;;5.20;;
59038;SDS011;44824;43.376;19.630;2023-06-14T06:51:12;8.95;;;4.47;;
59038;SDS011;44824;43.376;19.630;2023-06-14T06:53:38;8.85;;;4.90;;
59038;SDS011;44824;43.376;19.630;2023-06-14T06:56:04;8.85;;;4.32;;
59038;SDS011;44824;43.376;19.630;2023-06-14T06:58:30;8.50;;;5.20;;
59038;SDS011;44824;43.376;19.630;2023-06-14T07:00:56;7.40;;;4.53;;
59038;SDS011;44824;43.376;19.630;2023-06-14T07:09:24;7.25;;;4.70;;
59038;SDS011;44824;43.376;19.630;2023-06-14T07:11:57;10.40;;;5.28;;
59038;SDS011;44824;43.376;19.630;2023-06-14T07:14:23;9.10;;;5.15;;
59038;SDS011;44824;43.376;19.630;2023-06-14T07:17:04;9.73;;;5.68;;
59038;SDS011;44824;43.376;19.630;2023-06-14T07:19:30;10.23;;;6.10;;
59038;SDS011;44824;43.376;19.630;2023-06-14T07:21:58;9.65;;;5.68;;
59038;SDS011;44824;43.376;19.630;2023-06-14T07:24:24;9.25;;;5.70;;
59038;SDS011;44824;43.376;19.630;2023-06-14T07:26:50;8.55;;;5.50;;
59038;SDS011;44824;43.376;19.630;2023-06-14T07:29:20;9.18;;;6.13;;
59038;SDS011;44824;43.376;19.630;2023-06-14T07:31:51;7.97;;;5.30;;
59038;SDS011;44824;43.376;19.630;2023-06-14T07:34:17;9.38;;;5.70;;
59038;SDS011;44824;43.376;19.630;2023-06-14T07:36:53;9.07;;;5.80;;
59038;SDS011;44824;43.376;19.630;2023-06-14T07:39:31;9.73;;;5.28;;
59038;SDS011;44824;43.376;19.630;2023-06-14T07:42:05;10.82;;;6.03;;
59038;SDS011;44824;43.376;19.630;2023-06-14T07:44:32;8.27;;;5.25;;
59038;SDS011;44824;43.376;19.630;2023-06-14T07:47:00;9.70;;;4.97;;
59038;SDS011;44824;43.376;19.630;2023-06-14T07:49:27;8.00;;;4.97;;
59038;SDS011;44824;43.376;19.630;2023-06-14T07:51:53;8.45;;;4.90;;
59038;SDS011;44824;43.376;19.630;2023-06-14T07:54:19;8.73;;;5.38;;
59038;SDS011;44824;43.376;19.630;2023-06-14T07:56:49;9.00;;;5.10;;
59038;SDS011;44824;43.376;19.630;2023-06-14T07:59:19;8.75;;;5.05;;
59038;SDS011;44824;43.376;19.630;2023-06-14T08:05:20;9.05;;;4.88;;
59038;SDS011;44824;43.376;19.630;2023-06-14T08:07:46;7.57;;;4.32;;
59038;SDS011;44824;43.376;19.630;2023-06-14T08:13:19;8.20;;;4.80;;
59038;SDS011;44824;43.376;19.630;2023-06-14T08:16:00;11.35;;;4.75;;
59038;SDS011;44824;43.376;19.630;2023-06-14T08:18:29;6.72;;;4.15;;
59038;SDS011;44824;43.376;19.630;2023-06-14T08:20:55;9.73;;;4.47;;
59038;SDS011;44824;43.376;19.630;2023-06-14T08:23:22;10.25;;;4.80;;
59038;SDS011;44824;43.376;19.630;2023-06-14T08:25:48;6.72;;;4.22;;
59038;SDS011;44824;43.376;19.630;2023-06-14T08:28:15;7.70;;;3.95;;
59038;SDS011;44824;43.376;19.630;2023-06-14T08:30:41;6.97;;;4.20;;
59038;SDS011;44824;43.376;19.630;2023-06-14T08:36:08;6.53;;;3.90;;
59038;SDS011;44824;43.376;19.630;2023-06-14T08:38:37;7.53;;;4.03;;
59038;SDS011;44824;43.376;19.630;2023-06-14T08:41:04;7.38;;;3.75;;
59038;SDS011;44824;43.376;19.630;2023-06-14T08:43:33;7.13;;;4.18;;
59038;SDS011;44824;43.376;19.630;2023-06-14T08:46:04;9.32;;;4.30;;
59038;SDS011;44824;43.376;19.630;2023-06-14T08:48:49;12.65;;;4.10;;
59038;SDS011;44824;43.376;19.630;2023-06-14T08:51:19;8.30;;;4.40;;
59038;SDS011;44824;43.376;19.630;2023-06-14T08:53:57;7.95;;;4.57;;
59038;SDS011;44824;43.376;19.630;2023-06-14T08:56:25;7.07;;;4.07;;
59038;SDS011;44824;43.376;19.630;2023-06-14T08:58:53;8.23;;;3.70;;
59038;SDS011;44824;43.376;19.630;2023-06-14T09:01:22;7.45;;;3.72;;
59038;SDS011;44824;43.376;19.630;2023-06-14T09:03:50;7.28;;;3.22;;
59038;SDS011;44824;43.376;19.630;2023-06-14T09:06:16;6.50;;;3.50;;
59038;SDS011;44824;43.376;19.630;2023-06-14T09:08:44;6.13;;;3.28;;
59038;SDS011;44824;43.376;19.630;2023-06-14T09:13:48;9.82;;;3.42;;
59038;SDS011;44824;43.376;19.630;2023-06-14T09:16:15;7.18;;;3.70;;
59038;SDS011;44824;43.376;19.630;2023-06-14T09:18:42;6.88;;;3.58;;
59038;SDS011;44824;43.376;19.630;2023-06-14T09:21:15;9.40;;;3.95;;
59038;SDS011;44824;43.376;19.630;2023-06-14T09:23:44;6.20;;;3.40;;
59038;SDS011;44824;43.376;19.630;2023-06-14T09:28:40;6.90;;;3.90;;
59038;SDS011;44824;43.376;19.630;2023-06-14T09:34:30;7.18;;;3.80;;
59038;SDS011;44824;43.376;19.630;2023-06-14T09:36:59;7.57;;;3.97;;
59038;SDS011;44824;43.376;19.630;2023-06-14T09:39:25;9.38;;;3.67;;
59038;SDS011;44824;43.376;19.630;2023-06-14T09:41:55;6.90;;;3.53;;
59038;SDS011;44824;43.376;19.630;2023-06-14T09:44:25;6.63;;;2.80;;
59038;SDS011;44824;43.376;19.630;2023-06-14T09:47:10;8.43;;;3.50;;
59038;SDS011;44824;43.376;19.630;2023-06-14T09:52:25;9.25;;;3.03;;
59038;SDS011;44824;43.376;19.630;2023-06-14T09:54:52;9.07;;;2.67;;
59038;SDS011;44824;43.376;19.630;2023-06-14T09:57:22;6.75;;;2.78;;
59038;SDS011;44824;43.376;19.630;2023-06-14T10:00:00;6.80;;;2.38;;
59038;SDS011;44824;43.376;19.630;2023-06-14T10:02:32;6.05;;;2.50;;
59038;SDS011;44824;43.376;19.630;2023-06-14T10:08:15;5.82;;;2.35;;
59038;SDS011;44824;43.376;19.630;2023-06-14T10:10:42;6.55;;;2.30;;
59038;SDS011;44824;43.376;19.630;2023-06-14T10:13:11;5.03;;;2.03;;
59038;SDS011;44824;43.376;19.630;2023-06-14T10:15:41;6.65;;;1.70;;
59038;SDS011;44824;43.376;19.630;2023-06-14T10:18:14;6.20;;;1.70;;
59038;SDS011;44824;43.376;19.630;2023-06-14T10:20:51;6.53;;;1.90;;
59038;SDS011;44824;43.376;19.630;2023-06-14T10:23:30;4.13;;;1.63;;
59038;SDS011;44824;43.376;19.630;2023-06-14T10:25:59;5.72;;;1.50;;
59038;SDS011;44824;43.376;19.630;2023-06-14T10:28:25;6.00;;;1.75;;
59038;SDS011;44824;43.376;19.630;2023-06-14T10:33:58;12.73;;;1.77;;
59038;SDS011;44824;43.376;19.630;2023-06-14T10:36:25;3.67;;;1.48;;
59038;SDS011;44824;43.376;19.630;2023-06-14T10:39:05;4.57;;;1.60;;
59038;SDS011;44824;43.376;19.630;2023-06-14T10:41:41;3.78;;;1.42;;
59038;SDS011;44824;43.376;19.630;2023-06-14T10:46:40;5.70;;;1.95;;
59038;SDS011;44824;43.376;19.630;2023-06-14T10:49:06;4.03;;;1.60;;
59038;SDS011;44824;43.376;19.630;2023-06-14T10:51:38;6.07;;;2.10;;
59038;SDS011;44824;43.376;19.630;2023-06-14T10:54:24;4.72;;;2.00;;
59038;SDS011;44824;43.376;19.630;2023-06-14T10:56:53;4.80;;;1.80;;
59038;SDS011;44824;43.376;19.630;2023-06-14T10:59:25;6.38;;;2.00;;
59038;SDS011;44824;43.376;19.630;2023-06-14T11:02:03;4.55;;;1.90;;
59038;SDS011;44824;43.376;19.630;2023-06-14T11:10:39;6.25;;;2.47;;
59038;SDS011;44824;43.376;19.630;2023-06-14T11:13:08;9.63;;;3.80;;
59038;SDS011;44824;43.376;19.630;2023-06-14T11:15:35;13.57;;;5.15;;
59038;SDS011;44824;43.376;19.630;2023-06-14T11:18:02;12.00;;;5.55;;
59038;SDS011;44824;43.376;19.630;2023-06-14T11:20:30;6.93;;;2.80;;
59038;SDS011;44824;43.376;19.630;2023-06-14T11:22:56;7.15;;;2.30;;
59038;SDS011;44824;43.376;19.630;2023-06-14T11:25:22;8.90;;;2.20;;
59038;SDS011;44824;43.376;19.630;2023-06-14T11:27:49;6.28;;;2.10;;
59038;SDS011;44824;43.376;19.630;2023-06-14T11:30:15;6.38;;;1.75;;
59038;SDS011;44824;43.376;19.630;2023-06-14T11:32:48;5.82;;;1.70;;
59038;SDS011;44824;43.376;19.630;2023-06-14T11:43:14;14.68;;;7.30;;
59038;SDS011;44824;43.376;19.630;2023-06-14T11:46:15;8.60;;;2.33;;
59038;SDS011;44824;43.376;19.630;2023-06-14T11:59:45;6.32;;;1.73;;
59038;SDS011;44824;43.376;19.630;2023-06-14T12:02:17;6.47;;;2.00;;
59038;SDS011;44824;43.376;19.630;2023-06-14T12:07:57;4.60;;;2.00;;
59038;SDS011;44824;43.376;19.630;2023-06-14T12:10:24;5.35;;;1.90;;
59038;SDS011;44824;43.376;19.630;2023-06-14T12:12:56;5.32;;;1.60;;
59038;SDS011;44824;43.376;19.630;2023-06-14T12:18:12;7.03;;;2.92;;
59038;SDS011;44824;43.376;19.630;2023-06-14T12:37:18;5.20;;;2.10;;
59038;SDS011;44824;43.376;19.630;2023-06-14T12:39:47;10.15;;;2.40;;
59038;SDS011;44824;43.376;19.630;2023-06-14T12:53:49;10.50;;;3.90;;
59038;SDS011;44824;43.376;19.630;2023-06-14T12:56:18;8.68;;;3.15;;
59038;SDS011;44824;43.376;19.630;2023-06-14T12:58:59;10.32;;;7.95;;
59038;SDS011;44824;43.376;19.630;2023-06-14T13:06:56;6.47;;;2.80;;
59038;SDS011;44824;43.376;19.630;2023-06-14T13:23:48;5.53;;;2.45;;
59038;SDS011;44824;43.376;19.630;2023-06-14T13:39:01;5.70;;;2.40;;
59038;SDS011;44824;43.376;19.630;2023-06-14T13:44:42;6.43;;;2.28;;
59038;SDS011;44824;43.376;19.630;2023-06-14T17:41:47;6.18;;;2.17;;
59038;SDS011;44824;43.376;19.630;2023-06-14T18:09:37;7.38;;;2.53;;
59038;SDS011;44824;43.376;19.630;2023-06-14T18:12:12;5.32;;;2.42;;
59038;SDS011;44824;43.376;19.630;2023-06-14T18:14:47;10.20;;;2.80;;
59038;SDS011;44824;43.376;19.630;2023-06-14T18:19:51;9.73;;;3.10;;
59038;SDS011;44824;43.376;19.630;2023-06-14T18:22:29;6.93;;;3.58;;
59038;SDS011;44824;43.376;19.630;2023-06-14T18:24:55;9.02;;;2.80;;
59038;SDS011;44824;43.376;19.630;2023-06-14T18:27:24;6.60;;;2.70;;
59038;SDS011;44824;43.376;19.630;2023-06-14T18:32:49;11.45;;;3.00;;
59038;SDS011;44824;43.376;19.630;2023-06-14T18:38:02;13.52;;;3.33;;
59038;SDS011;44824;43.376;19.630;2023-06-14T18:40:31;10.23;;;4.28;;
59038;SDS011;44824;43.376;19.630;2023-06-14T18:42:57;10.43;;;3.95;;
59038;SDS011;44824;43.376;19.630;2023-06-14T18:45:30;8.45;;;2.83;;
59038;SDS011;44824;43.376;19.630;2023-06-14T18:47:57;10.80;;;4.30;;
59038;SDS011;44824;43.376;19.630;2023-06-14T18:50:39;9.65;;;3.42;;
59038;SDS011;44824;43.376;19.630;2023-06-14T18:53:16;12.75;;;5.50;;
59038;SDS011;44824;43.376;19.630;2023-06-14T18:55:42;9.80;;;4.00;;
59038;SDS011;44824;43.376;19.630;2023-06-14T18:58:09;8.13;;;3.78;;
59038;SDS011;44824;43.376;19.630;2023-06-14T19:03:01;12.50;;;4.10;;
59038;SDS011;44824;43.376;19.630;2023-06-14T19:05:28;9.70;;;3.28;;
59038;SDS011;44824;43.376;19.630;2023-06-14T19:10:25;9.35;;;3.55;;
59038;SDS011;44824;43.376;19.630;2023-06-14T19:12:54;8.50;;;3.63;;
59038;SDS011;44824;43.376;19.630;2023-06-14T19:15:48;8.05;;;3.40;;
59038;SDS011;44824;43.376;19.630;2023-06-14T19:18:18;7.97;;;3.20;;
59038;SDS011;44824;43.376;19.630;2023-06-14T19:20:44;7.38;;;3.05;;
59038;SDS011;44824;43.376;19.630;2023-06-14T19:23:10;7.28;;;3.30;;
59038;SDS011;44824;43.376;19.630;2023-06-14T19:25:36;9.77;;;3.20;;
59038;SDS011;44824;43.376;19.630;2023-06-14T19:28:03;13.35;;;3.85;;
59038;SDS011;44824;43.376;19.630;2023-06-14T19:36:35;7.20;;;2.85;;
59038;SDS011;44824;43.376;19.630;2023-06-14T19:39:09;9.52;;;2.95;;
59038;SDS011;44824;43.376;19.630;2023-06-14T19:41:56;8.63;;;2.85;;
59038;SDS011;44824;43.376;19.630;2023-06-14T20:09:20;8.30;;;3.40;;
59038;SDS011;44824;43.376;19.630;2023-06-14T20:11:52;11.15;;;3.70;;
59038;SDS011;44824;43.376;19.630;2023-06-14T20:25:32;8.95;;;3.55;;
59038;SDS011;44824;43.376;19.630;2023-06-14T20:30:52;12.23;;;3.70;;
59038;SDS011;44824;43.376;19.630;2023-06-14T20:33:19;18.15;;;4.07;;
59038;SDS011;44824;43.376;19.630;2023-06-14T20:42:12;9.63;;;3.85;;
59038;SDS011;44824;43.376;19.630;2023-06-14T20:44:39;9.75;;;4.00;;
59038;SDS011;44824;43.376;19.630;2023-06-14T20:53:26;12.37;;;3.83;;
59038;SDS011;44824;43.376;19.630;2023-06-14T21:07:40;9.05;;;3.78;;
59038;SDS011;44824;43.376;19.630;2023-06-14T21:13:02;9.05;;;4.03;;
59038;SDS011;44824;43.376;19.630;2023-06-14T21:15:40;13.55;;;4.28;;
59038;SDS011;44824;43.376;19.630;2023-06-14T21:18:22;12.98;;;4.32;;
59038;SDS011;44824;43.376;19.630;2023-06-14T22:08:14;9.27;;;4.20;;
59038;SDS011;44824;43.376;19.630;2023-06-14T23:32:03;8.60;;;3.75;;
59038;SDS011;44824;43.376;19.630;2023-06-14T23:38:01;11.10;;;4.50;;
